Merksplas, Belgium
Current Conditions -  °F | °C
As of 7:55 PM on Friday 24 Oct 2014 (Local Time) from EHGR Reporting Station
Overcast Overcast  
Wind Chill: 54°   Ceiling: 900
Heat Index: 54°   Visibility: 6mi
Dew Point: 52°   Wind: 12mph
Humidity: 94%   Direction: 190°S
Pressure: 30"   Gusts: NA
Location:  51.36°N, 4.87°E
Report Text: EHGR 241755Z AUTO 19010KT 9999 SCT008 BKN009 OVC010 12/11 Q1016 GRN
Loading
Personal Weather Stations






























Interactive Weather Map
Tropical Storm Tracking
New forecast layout! Learn more

10-Day Weather Forecast

Advertisements
Track Severe Weather on mobile